Colorado Springs, CO (80902)

11:40 AM MDT on April 19, 2015 (GMT -0600)
RAWS | | Change Station
CLOSE
Current Station
Personal Weather Station
Location: Colorado Springs, CO
Elevation: 6450 ft
Nearby Weather Stations

Elev 6450 ft 38.61 °N, 104.89 °W | Updated 42 minutes ago

Mostly Cloudy
Mostly Cloudy
45 °F
Feels Like 40 °F
N
9
Wind Variable Wind from ENE
Gusts 20.0 mph

Today
High -- | Low -- °F
--% Chance of Precip.
Yesterday
High -- | Low -- °F
Precip. -- in
6:17 AM 7:39 PM
New Moon, 1% visible
Pressure 30.17 in
Visibility 10.0 miles
Clouds Scattered Clouds 4600 ft
Windchill 40 °F
Dew Point 31 °F
Humidity 58%
Rainfall in
Snow Depth Not available.
UV 7 out of 12
Pollen 9.30 out of 12
Air Quality Not available.
Flu Activity Local Activity
METAR KFCS 191658Z 36015G24KT 10SM SCT046 06/M02 A3011 RMK AO2A PK WND 35029/00 SLP216 T00571022

More Conditions Fewer Conditions

Pressure 30.17 in
Visibility 10.0 miles
Clouds Scattered Clouds 4600 ft
Windchill 40 °F
Dew Point 31 °F
Humidity 58%
Rainfall in
Snow Depth Not available.
UV 7 out of 12
Pollen 9.30 out of 12
Air Quality Not available.
Flu Activity Local Activity
METAR KFCS 191658Z 36015G24KT 10SM SCT046 06/M02 A3011 RMK AO2A PK WND 35029/00 SLP216 T00571022

More Conditions Fewer Conditions

10-Day Weather Forecast

Almanac

Astronomy

Apr. 19, 2015 Rise Set
Actual Time
Civil Twilight
Nautical Twilight
Astronomical Twilight
Moon
Length of Visible Light
Length of Day
Tomorrow will be .
, % of the Moon is Illuminated

Today's Extremes

State Highs State Lows

Community

WunderPhotos

Upload Photos

1,814,877 photos uploaded!

WunderBlogs® & News

Nearby

Air Quality

  Air Quality AQ Index Pollutant
Not available.

Snow Depth

Station Depth Elevation

Earthquake Activity

City Distance Mag. Time & Date
Minimum magnitude displayed is 2.5.

Coastal Water Temperatures

Place Temperature

Stations

Nearby Weather Stations

Station Location Temp. Windchill Dew Point Humidity Wind Precip. Elev Updated Type